createdAt,value
2023-04-29T00:02:04.146Z,38.90
2023-04-29T00:04:31.326Z,37.53
2023-04-29T00:06:58.581Z,42.40
2023-04-29T00:09:25.432Z,36.13
2023-04-29T00:11:52.564Z,36.77
2023-04-29T00:14:19.466Z,34.50
2023-04-29T00:16:47.162Z,41.50
2023-04-29T00:19:14.057Z,37.13
2023-04-29T00:21:41.480Z,36.23
2023-04-29T00:24:08.358Z,36.37
2023-04-29T00:26:35.530Z,38.13
2023-04-29T00:29:02.377Z,34.73
2023-04-29T00:31:29.565Z,35.93
2023-04-29T00:33:56.447Z,35.57
2023-04-29T00:36:23.559Z,36.50
2023-04-29T00:38:50.398Z,32.83
2023-04-29T00:41:17.599Z,37.43
2023-04-29T00:43:44.541Z,33.83
2023-04-29T00:46:11.792Z,35.73
2023-04-29T00:48:39.499Z,35.13
2023-04-29T00:51:07.106Z,34.70
2023-04-29T00:53:35.105Z,31.87
2023-04-29T00:56:03.421Z,26.98
2023-04-29T00:58:33.649Z,30.20
2023-04-29T01:01:04.396Z,36.07
2023-04-29T01:03:32.605Z,28.53
2023-04-29T01:06:14.900Z,35.22
2023-04-29T01:09:00.462Z,29.07
2023-04-29T01:11:34.819Z,31.90
2023-04-29T01:14:03.489Z,22.73
2023-04-29T01:16:48.838Z,28.00
2023-04-29T01:20:00.215Z,23.40
2023-04-29T01:22:27.562Z,22.80
2023-04-29T01:24:55.099Z,24.83
2023-04-29T01:27:58.829Z,24.50
2023-04-29T01:30:53.864Z,26.37
2023-04-29T01:33:40.592Z,20.73
2023-04-29T01:36:46.526Z,18.63
2023-04-29T01:39:56.779Z,24.53
2023-04-29T01:42:46.052Z,25.40
2023-04-29T01:45:19.241Z,24.10
2023-04-29T01:47:47.567Z,23.63
2023-04-29T01:50:14.808Z,24.25
2023-04-29T01:52:41.787Z,25.93
2023-04-29T01:55:09.663Z,24.33
2023-04-29T01:57:36.589Z,25.23
2023-04-29T02:00:04.898Z,23.97
2023-04-29T02:02:31.910Z,20.40
2023-04-29T02:04:59.498Z,26.37
2023-04-29T02:07:26.561Z,24.07
2023-04-29T02:09:53.926Z,20.30
2023-04-29T02:12:21.022Z,21.73
2023-04-29T02:14:48.134Z,20.80
2023-04-29T02:17:15.066Z,23.20
2023-04-29T02:19:42.206Z,20.93
2023-04-29T02:22:09.372Z,18.90
2023-04-29T02:24:36.828Z,21.80
2023-04-29T02:27:05.939Z,20.10
2023-04-29T02:29:33.491Z,24.10
2023-04-29T02:32:00.373Z,22.13
2023-04-29T02:34:27.767Z,21.70
2023-04-29T02:36:54.695Z,19.97
2023-04-29T02:39:21.916Z,23.40
2023-04-29T02:41:49.201Z,20.30
2023-04-29T02:44:16.397Z,23.23
2023-04-29T02:46:45.762Z,22.27
2023-04-29T02:49:14.117Z,24.20
2023-04-29T02:51:41.546Z,28.07
2023-04-29T02:54:08.801Z,25.97
2023-04-29T02:56:35.688Z,26.57
2023-04-29T02:59:02.831Z,21.47
2023-04-29T03:01:29.647Z,25.33
2023-04-29T03:03:57.646Z,20.80
2023-04-29T03:06:24.628Z,24.03
2023-04-29T03:08:53.071Z,22.87
2023-04-29T03:11:20.792Z,22.63
2023-04-29T03:13:48.249Z,20.30
2023-04-29T03:16:17.006Z,23.83
2023-04-29T03:23:42.866Z,22.40
2023-04-29T03:26:10.581Z,28.67
2023-04-29T03:28:37.504Z,20.53
2023-04-29T03:31:04.926Z,23.63
2023-04-29T03:33:31.932Z,19.87
2023-04-29T03:35:59.165Z,21.63
2023-04-29T03:38:28.615Z,25.43
2023-04-29T03:40:55.973Z,24.40
2023-04-29T03:43:22.868Z,23.77
2023-04-29T03:45:50.105Z,26.40
2023-04-29T03:48:16.988Z,21.57
2023-04-29T03:50:44.298Z,20.33
2023-04-29T03:53:12.120Z,24.10
2023-04-29T03:55:39.351Z,25.73
2023-04-29T03:58:06.332Z,22.80
2023-04-29T04:00:33.954Z,25.37
2023-04-29T04:03:03.516Z,27.20
2023-04-29T04:05:32.341Z,23.07
2023-04-29T04:08:00.639Z,22.50
2023-04-29T04:10:28.586Z,18.65
2023-04-29T04:12:55.624Z,21.47
2023-04-29T04:15:22.792Z,19.07
2023-04-29T04:17:49.633Z,14.03
2023-04-29T04:20:17.457Z,19.03
2023-04-29T04:22:44.295Z,21.77
2023-04-29T04:25:11.482Z,20.97
2023-04-29T04:27:38.342Z,23.13
2023-04-29T04:30:06.145Z,20.60
2023-04-29T04:32:33.073Z,19.47
2023-04-29T04:35:00.254Z,19.27
2023-04-29T04:37:27.128Z,24.83
2023-04-29T04:39:54.496Z,19.10
2023-04-29T04:42:22.784Z,19.97
2023-04-29T04:44:49.963Z,15.88
2023-04-29T04:47:16.794Z,24.50
2023-04-29T04:49:44.505Z,20.33
2023-04-29T04:52:11.976Z,21.87
2023-04-29T04:54:39.129Z,17.73
2023-04-29T04:57:06.360Z,22.70
2023-04-29T04:59:34.356Z,14.23
2023-04-29T05:02:01.217Z,18.47
2023-04-29T05:04:28.603Z,16.73
2023-04-29T05:06:55.640Z,15.10
2023-04-29T05:09:22.756Z,15.30
2023-04-29T05:11:49.631Z,13.02
2023-04-29T05:14:17.273Z,18.63
2023-04-29T05:16:45.473Z,16.13
2023-04-29T05:19:12.862Z,15.45
2023-04-29T05:21:39.730Z,19.73
2023-04-29T05:24:07.410Z,15.35
2023-04-29T05:26:34.281Z,15.32
2023-04-29T05:29:01.583Z,15.23
2023-04-29T05:31:28.730Z,15.85
2023-04-29T05:33:55.985Z,13.70
2023-04-29T05:36:22.824Z,17.65
2023-04-29T05:38:49.937Z,14.10
2023-04-29T05:41:16.767Z,15.25
2023-04-29T05:43:44.011Z,17.60
2023-04-29T05:46:10.946Z,17.33
2023-04-29T05:48:38.095Z,16.00
2023-04-29T05:51:04.986Z,18.05
2023-04-29T05:53:33.330Z,18.02
2023-04-29T05:56:00.182Z,16.73
2023-04-29T05:58:27.349Z,19.20
2023-04-29T06:00:54.178Z,14.73
2023-04-29T06:03:21.524Z,13.15
2023-04-29T06:05:49.110Z,11.70
2023-04-29T06:08:16.783Z,14.13
2023-04-29T06:10:43.586Z,20.35
2023-04-29T06:13:10.848Z,17.13
2023-04-29T06:15:38.146Z,16.20
2023-04-29T06:18:05.336Z,12.13
2023-04-29T06:20:36.861Z,12.27
2023-04-29T06:23:05.475Z,13.02
2023-04-29T06:25:32.355Z,14.85
2023-04-29T06:27:59.675Z,12.57
2023-04-29T06:30:26.782Z,16.63
2023-04-29T06:32:54.041Z,19.60
2023-04-29T06:35:20.988Z,13.27
2023-04-29T06:37:48.153Z,14.55
2023-04-29T06:40:15.054Z,13.48
2023-04-29T06:42:43.784Z,12.95
2023-04-29T06:45:11.092Z,14.45
2023-04-29T06:47:38.408Z,12.63
2023-04-29T06:50:05.769Z,16.38
2023-04-29T06:52:33.531Z,11.90
2023-04-29T06:55:00.820Z,10.43
2023-04-29T06:57:27.916Z,9.52
2023-04-29T06:59:55.037Z,9.65
2023-04-29T07:02:22.337Z,8.77
2023-04-29T07:04:50.377Z,8.88
2023-04-29T07:07:17.612Z,11.82
2023-04-29T07:09:44.456Z,11.60
2023-04-29T07:12:11.570Z,16.48
2023-04-29T07:14:38.693Z,8.25
2023-04-29T07:17:06.074Z,12.35
2023-04-29T07:19:33.020Z,11.93
2023-04-29T07:22:00.191Z,10.65
2023-04-29T07:24:27.165Z,11.43
2023-04-29T07:26:54.327Z,11.65
2023-04-29T07:29:21.207Z,12.25
2023-04-29T07:31:48.436Z,11.68
2023-04-29T07:34:15.259Z,14.57
2023-04-29T07:36:42.453Z,11.48
2023-04-29T07:39:09.458Z,11.40
2023-04-29T07:41:36.649Z,11.20
2023-04-29T07:44:03.563Z,12.32
2023-04-29T07:46:31.527Z,9.45
2023-04-29T07:48:58.475Z,12.30
2023-04-29T07:51:25.612Z,41.63
2023-04-29T07:53:52.474Z,12.15
2023-04-29T07:56:20.208Z,19.27
2023-04-29T07:58:47.234Z,15.68
2023-04-29T08:01:17.710Z,12.20
2023-04-29T08:03:45.383Z,12.10
2023-04-29T08:06:12.988Z,10.50
2023-04-29T08:08:40.178Z,9.95
2023-04-29T08:11:07.552Z,9.88
2023-04-29T08:13:34.407Z,8.25
2023-04-29T08:16:01.561Z,8.52
2023-04-29T08:18:28.527Z,10.73
2023-04-29T08:20:55.811Z,10.02
2023-04-29T08:23:22.699Z,11.68
2023-04-29T08:25:52.305Z,12.05
2023-04-29T08:28:19.717Z,6.70
2023-04-29T08:30:46.987Z,10.43
2023-04-29T08:33:14.593Z,11.93
2023-04-29T08:35:42.241Z,6.60
2023-04-29T08:38:10.075Z,10.07
2023-04-29T08:40:43.229Z,10.98
2023-04-29T08:43:10.575Z,7.72
2023-04-29T08:45:39.778Z,9.98
2023-04-29T08:48:10.520Z,7.05
2023-04-29T08:50:40.401Z,9.10
2023-04-29T08:53:08.281Z,6.53
2023-04-29T08:55:46.179Z,9.43
2023-04-29T08:58:14.505Z,9.90
2023-04-29T09:00:43.276Z,9.23
2023-04-29T09:03:33.530Z,7.53
2023-04-29T09:06:02.117Z,11.90
2023-04-29T09:08:30.068Z,7.03
2023-04-29T09:10:58.518Z,6.10
2023-04-29T09:13:31.477Z,12.32
2023-04-29T09:15:59.130Z,6.53
2023-04-29T09:18:46.752Z,6.15
2023-04-29T09:21:21.732Z,8.80
2023-04-29T09:23:54.519Z,9.73
2023-04-29T09:26:22.834Z,24.73
2023-04-29T09:29:09.352Z,9.32
2023-04-29T09:31:39.625Z,6.85
2023-04-29T09:34:06.979Z,10.48
2023-04-29T09:36:38.753Z,10.40
2023-04-29T09:39:11.588Z,7.70
2023-04-29T09:42:03.816Z,9.63
2023-04-29T09:44:37.978Z,8.68
2023-04-29T09:47:06.052Z,5.28
2023-04-29T09:49:45.367Z,6.97
2023-04-29T09:52:15.154Z,8.27
2023-04-29T09:54:43.489Z,10.57
2023-04-29T09:57:12.562Z,7.25
2023-04-29T09:59:41.188Z,7.65
2023-04-29T10:02:15.730Z,6.45
2023-04-29T10:04:45.868Z,6.38
2023-04-29T10:07:17.800Z,8.52
2023-04-29T10:09:48.980Z,13.02
2023-04-29T10:12:18.658Z,7.65
2023-04-29T10:14:55.315Z,8.15
2023-04-29T10:17:47.269Z,6.72
2023-04-29T10:20:24.320Z,7.97
2023-04-29T10:22:56.722Z,7.60
2023-04-29T10:25:24.839Z,7.63
2023-04-29T10:27:53.752Z,29.17
2023-04-29T10:30:22.034Z,47.67
2023-04-29T10:32:52.507Z,40.00
2023-04-29T10:35:23.468Z,16.33
2023-04-29T10:37:53.048Z,7.20
2023-04-29T10:40:31.711Z,22.40
2023-04-29T10:42:59.736Z,19.40
2023-04-29T10:45:31.866Z,6.75
2023-04-29T10:48:02.927Z,15.02
2023-04-29T10:50:31.548Z,10.95
2023-04-29T10:53:02.147Z,7.65
2023-04-29T10:55:29.407Z,8.18
2023-04-29T10:57:57.362Z,7.13
2023-04-29T11:00:32.843Z,6.05
2023-04-29T11:03:01.748Z,6.32
2023-04-29T11:05:36.812Z,6.63
2023-04-29T11:08:13.261Z,8.30
2023-04-29T11:10:43.780Z,6.70
2023-04-29T11:13:30.068Z,9.20
2023-04-29T11:16:11.302Z,10.80
2023-04-29T11:19:17.621Z,5.97
2023-04-29T11:21:47.260Z,12.25
2023-04-29T11:24:18.087Z,10.35
2023-04-29T11:26:46.352Z,6.68
2023-04-29T11:29:14.755Z,8.98
2023-04-29T11:31:42.055Z,17.45
2023-04-29T11:34:09.176Z,17.13
2023-04-29T11:36:36.762Z,6.85
2023-04-29T11:39:05.149Z,6.70
2023-04-29T11:41:32.191Z,12.50
2023-04-29T11:44:00.354Z,6.75
2023-04-29T11:46:31.035Z,5.90
2023-04-29T11:49:00.128Z,9.75
2023-04-29T11:51:28.086Z,7.65
2023-04-29T11:53:58.011Z,12.87
2023-04-29T11:56:25.688Z,10.73
2023-04-29T11:58:59.182Z,9.48
2023-04-29T12:01:27.227Z,12.05
2023-04-29T12:04:00.028Z,7.03
2023-04-29T12:06:30.562Z,7.55
2023-04-29T12:09:01.369Z,12.20
2023-04-29T12:11:29.014Z,9.77
2023-04-29T12:13:58.200Z,6.53
2023-04-29T12:16:25.916Z,7.32
2023-04-29T12:18:53.573Z,8.00
2023-04-29T12:21:22.793Z,8.45
2023-04-29T12:23:51.793Z,13.05
2023-04-29T12:26:21.097Z,7.68
2023-04-29T12:28:55.603Z,10.23
2023-04-29T12:31:22.899Z,6.30
2023-04-29T12:33:55.349Z,9.48
2023-04-29T12:36:23.474Z,8.25
2023-04-29T12:38:50.751Z,14.50
2023-04-29T12:41:17.687Z,9.32
2023-04-29T12:43:44.975Z,7.05
2023-04-29T12:46:15.260Z,9.02
2023-04-29T12:48:43.861Z,13.50
2023-04-29T12:51:11.688Z,8.23
2023-04-29T12:53:39.426Z,7.13
2023-04-29T12:56:06.891Z,8.52
2023-04-29T12:58:35.082Z,9.30
2023-04-29T13:01:02.152Z,6.05
2023-04-29T13:03:29.563Z,9.63
2023-04-29T13:05:57.323Z,13.27
2023-04-29T13:08:24.622Z,13.52
2023-04-29T13:10:51.692Z,12.07
2023-04-29T13:13:18.858Z,12.93
2023-04-29T13:15:45.776Z,9.23
2023-04-29T13:18:12.961Z,15.70
2023-04-29T13:20:42.329Z,16.80
2023-04-29T13:23:10.789Z,12.02
2023-04-29T13:25:37.867Z,8.80
2023-04-29T13:28:07.925Z,9.57
2023-04-29T13:30:35.162Z,13.73
2023-04-29T13:33:09.766Z,5.75
2023-04-29T13:35:41.612Z,7.38
2023-04-29T13:38:09.241Z,7.85
2023-04-29T13:40:39.424Z,8.65
2023-04-29T13:43:15.399Z,7.85
2023-04-29T13:45:47.839Z,9.55
2023-04-29T13:48:26.253Z,10.73
2023-04-29T13:54:17.609Z,10.18
2023-04-29T14:01:55.326Z,18.67
2023-04-29T14:04:07.260Z,13.52
2023-04-29T14:06:34.875Z,8.45
2023-04-29T14:09:03.925Z,34.70
2023-04-29T14:11:31.189Z,24.73
2023-04-29T14:13:58.255Z,8.85
2023-04-29T14:16:25.210Z,7.82
2023-04-29T14:18:52.553Z,11.15
2023-04-29T14:21:22.510Z,8.25
2023-04-29T14:23:52.691Z,11.63
2023-04-29T14:28:57.678Z,9.70
2023-04-29T14:31:28.080Z,10.20
2023-04-29T14:33:58.838Z,7.20
2023-04-29T14:36:26.755Z,9.63
2023-04-29T14:38:54.391Z,10.10
2023-04-29T14:41:24.543Z,9.57
2023-04-29T14:43:51.938Z,10.43
2023-04-29T14:46:19.141Z,9.82
2023-04-29T14:48:46.379Z,13.13
2023-04-29T14:51:13.259Z,14.05
2023-04-29T14:53:40.506Z,5.38
2023-04-29T14:56:08.070Z,6.35
2023-04-29T14:58:35.484Z,8.27
2023-04-29T15:01:02.451Z,7.35
2023-04-29T15:03:29.715Z,6.90
2023-04-29T15:05:58.954Z,8.20
2023-04-29T15:08:26.342Z,8.57
2023-04-29T15:10:53.357Z,8.60
2023-04-29T15:13:20.492Z,9.55
2023-04-29T15:15:47.672Z,11.20
2023-04-29T15:18:14.960Z,7.38
2023-04-29T15:20:42.568Z,7.30
2023-04-29T15:23:10.313Z,6.18
2023-04-29T15:25:38.390Z,7.55
2023-04-29T15:28:05.949Z,6.77
2023-04-29T15:30:33.026Z,5.82
2023-04-29T15:33:00.442Z,18.15
2023-04-29T15:35:27.769Z,26.05
2023-04-29T15:37:55.027Z,13.77
2023-04-29T15:40:22.068Z,30.33
2023-04-29T15:42:49.243Z,12.65
2023-04-29T15:45:17.071Z,8.23
2023-04-29T15:47:44.349Z,8.77
2023-04-29T15:50:11.649Z,11.23
2023-04-29T15:52:38.885Z,10.27
2023-04-29T15:55:07.157Z,9.85
2023-04-29T15:57:41.277Z,8.15
2023-04-29T16:00:09.035Z,8.27
2023-04-29T16:02:36.418Z,8.48
2023-04-29T16:05:03.674Z,11.73
2023-04-29T16:07:31.300Z,12.20
2023-04-29T16:09:58.208Z,9.27
2023-04-29T16:12:25.586Z,7.95
2023-04-29T16:14:52.653Z,9.45
2023-04-29T16:17:19.797Z,10.52
2023-04-29T16:19:46.706Z,9.35
2023-04-29T16:22:13.960Z,9.15
2023-04-29T16:24:40.922Z,8.65
2023-04-29T16:27:08.173Z,6.22
2023-04-29T16:29:35.098Z,10.00
2023-04-29T16:32:02.376Z,8.75
2023-04-29T16:34:30.619Z,9.25
2023-04-29T16:36:58.800Z,8.05
2023-04-29T16:39:33.460Z,10.13
2023-04-29T16:42:01.533Z,10.68
2023-04-29T16:44:28.417Z,5.85
2023-04-29T16:46:55.624Z,6.80
2023-04-29T16:49:28.307Z,7.38
2023-04-29T16:51:55.540Z,8.05
2023-04-29T16:54:23.270Z,7.38
2023-04-29T16:56:51.322Z,6.70
2023-04-29T16:59:18.318Z,7.05
2023-04-29T17:01:45.808Z,7.70
2023-04-29T17:04:12.778Z,10.13
2023-04-29T17:06:40.965Z,7.32
2023-04-29T17:09:08.000Z,8.45
2023-04-29T17:11:35.104Z,6.65
2023-04-29T17:14:02.019Z,6.80
2023-04-29T17:16:30.810Z,7.07
2023-04-29T17:18:57.841Z,10.02
2023-04-29T17:21:26.072Z,10.13
2023-04-29T17:23:53.466Z,17.92
2023-04-29T17:26:21.340Z,14.73
2023-04-29T17:28:48.422Z,22.63
2023-04-29T17:31:15.855Z,12.73
2023-04-29T17:33:54.734Z,13.32
2023-04-29T17:36:24.690Z,21.33
2023-04-29T17:38:51.566Z,21.83
2023-04-29T17:41:18.699Z,17.98
2023-04-29T17:43:45.547Z,10.20
2023-04-29T17:46:12.931Z,11.52
2023-04-29T17:48:39.751Z,52.53
2023-04-29T17:51:06.885Z,19.83
2023-04-29T17:53:33.842Z,34.35
2023-04-29T17:56:01.003Z,58.22
2023-04-29T17:58:29.163Z,29.90
2023-04-29T18:00:56.783Z,35.92
2023-04-29T18:03:24.014Z,37.83
2023-04-29T18:05:51.328Z,34.17
2023-04-29T18:08:18.173Z,44.42
2023-04-29T18:10:45.578Z,22.33
2023-04-29T18:13:12.575Z,25.63
2023-04-29T18:15:39.800Z,23.35
2023-04-29T18:18:07.050Z,32.67
2023-04-29T18:20:34.539Z,23.58
2023-04-29T18:23:01.756Z,19.58
2023-04-29T18:25:28.895Z,64.22
2023-04-29T18:28:07.588Z,41.17
2023-04-29T18:30:43.024Z,76.13
2023-04-29T18:33:09.967Z,63.58
2023-04-29T18:35:37.855Z,33.92
2023-04-29T18:38:04.780Z,69.53
2023-04-29T18:40:32.393Z,55.10
2023-04-29T18:42:59.218Z,41.65
2023-04-29T18:45:26.468Z,32.75
2023-04-29T18:47:53.475Z,35.83
2023-04-29T18:50:20.725Z,27.13
2023-04-29T18:52:47.670Z,27.50
2023-04-29T18:55:15.128Z,35.70
2023-04-29T18:57:42.310Z,28.67
2023-04-29T19:00:10.179Z,25.10
2023-04-29T19:02:38.372Z,39.58
2023-04-29T19:05:09.465Z,23.75
2023-04-29T19:07:36.376Z,21.48
2023-04-29T19:10:04.147Z,26.20
2023-04-29T19:12:31.157Z,29.33
2023-04-29T19:14:58.848Z,13.98
2023-04-29T19:17:25.881Z,20.52
2023-04-29T19:19:53.364Z,24.50
2023-04-29T19:22:20.829Z,19.70
2023-04-29T19:24:48.070Z,15.10
2023-04-29T19:27:14.949Z,12.50
2023-04-29T19:29:42.190Z,21.40
2023-04-29T19:32:09.019Z,21.20
2023-04-29T19:34:36.483Z,14.80
2023-04-29T19:37:04.089Z,26.00
2023-04-29T19:39:31.440Z,15.60
2023-04-29T19:41:58.347Z,15.85
2023-04-29T19:44:25.610Z,10.98
2023-04-29T19:46:53.702Z,16.42
2023-04-29T19:49:21.262Z,21.90
2023-04-29T19:51:48.177Z,20.77
2023-04-29T19:54:15.390Z,19.67
2023-04-29T19:56:42.259Z,25.02
2023-04-29T19:59:09.408Z,18.48
2023-04-29T20:01:36.450Z,11.35
2023-04-29T20:04:03.687Z,16.88
2023-04-29T20:06:32.212Z,19.20
2023-04-29T20:08:59.413Z,16.67
2023-04-29T20:11:26.404Z,20.58
2023-04-29T20:13:53.685Z,26.10
2023-04-29T20:16:20.705Z,29.25
2023-04-29T20:18:48.044Z,29.30
2023-04-29T20:21:14.881Z,24.50
2023-04-29T20:23:42.089Z,27.65
2023-04-29T20:26:09.003Z,22.60
2023-04-29T20:28:36.140Z,20.25
2023-04-29T20:31:03.015Z,17.90
2023-04-29T20:33:30.274Z,17.58
2023-04-29T20:35:59.527Z,21.60
2023-04-29T20:38:27.245Z,17.90
2023-04-29T20:40:54.488Z,23.92
2023-04-29T20:43:21.624Z,24.20
2023-04-29T20:45:48.717Z,27.08
2023-04-29T20:48:16.282Z,22.73
2023-04-29T20:50:43.291Z,25.83
2023-04-29T20:53:11.110Z,27.42
2023-04-29T20:55:37.960Z,33.03
2023-04-29T20:58:05.073Z,27.90
2023-04-29T21:00:31.998Z,23.73
2023-04-29T21:02:59.209Z,37.42
2023-04-29T21:05:26.106Z,26.17
2023-04-29T21:07:53.381Z,24.50
2023-04-29T21:10:20.964Z,24.88
2023-04-29T21:12:48.122Z,19.75
2023-04-29T21:15:15.365Z,18.63
2023-04-29T21:17:42.534Z,16.23
2023-04-29T21:20:09.688Z,26.75
2023-04-29T21:22:36.777Z,25.25
2023-04-29T21:25:05.425Z,28.00
2023-04-29T21:27:32.600Z,27.00
2023-04-29T21:29:59.438Z,28.92
2023-04-29T21:32:26.859Z,35.55
2023-04-29T21:34:53.742Z,36.53
2023-04-29T21:37:20.943Z,29.35
2023-04-29T21:39:47.808Z,33.60
2023-04-29T21:42:15.283Z,22.63
2023-04-29T21:44:42.200Z,25.75
2023-04-29T21:47:09.426Z,77.50
2023-04-29T21:49:36.661Z,38.20
2023-04-29T21:52:04.273Z,31.95
2023-04-29T21:54:31.195Z,39.17
2023-04-29T21:56:58.492Z,37.63
2023-04-29T21:59:25.347Z,36.63
2023-04-29T22:02:00.239Z,35.75
2023-04-29T22:04:28.351Z,32.22
2023-04-29T22:06:59.116Z,32.58
2023-04-29T22:09:26.051Z,36.90
2023-04-29T22:11:53.213Z,36.65
2023-04-29T22:14:20.076Z,38.67
2023-04-29T22:16:47.218Z,28.45
2023-04-29T22:19:14.172Z,33.40
2023-04-29T22:21:43.185Z,37.53
2023-04-29T22:24:10.332Z,35.47
2023-04-29T22:26:37.594Z,36.70
2023-04-29T22:29:04.636Z,32.80
2023-04-29T22:31:31.895Z,27.85
2023-04-29T22:33:58.805Z,39.10
2023-04-29T22:36:26.076Z,30.52
2023-04-29T22:38:52.952Z,25.33
2023-04-29T22:41:20.080Z,30.00
2023-04-29T22:43:46.909Z,29.67
2023-04-29T22:46:14.074Z,33.85
2023-04-29T22:48:41.015Z,29.30
2023-04-29T22:51:08.177Z,32.17
2023-04-29T22:53:35.066Z,32.10
2023-04-29T22:56:02.266Z,28.38
2023-04-29T22:58:29.197Z,26.92
2023-04-29T23:00:57.916Z,32.50
2023-04-29T23:03:25.349Z,34.38
2023-04-29T23:05:57.227Z,36.35
2023-04-29T23:08:24.065Z,35.63
2023-04-29T23:10:51.258Z,31.83
2023-04-29T23:13:18.203Z,29.77
2023-04-29T23:15:45.625Z,32.33
2023-04-29T23:18:12.778Z,26.40
2023-04-29T23:20:40.060Z,24.17
2023-04-29T23:23:06.926Z,26.38
2023-04-29T23:25:34.721Z,27.30
2023-04-29T23:28:01.670Z,28.10
2023-04-29T23:30:28.865Z,24.88
2023-04-29T23:32:55.982Z,27.35
2023-04-29T23:35:23.258Z,27.20
2023-04-29T23:37:50.061Z,22.50
2023-04-29T23:40:17.247Z,21.35
2023-04-29T23:42:44.055Z,26.33
2023-04-29T23:45:11.244Z,23.80
2023-04-29T23:47:38.318Z,23.45
2023-04-29T23:50:06.566Z,20.67
2023-04-29T23:52:33.369Z,23.85
2023-04-29T23:55:00.578Z,27.17
2023-04-29T23:57:27.452Z,26.23
2023-04-29T23:59:54.891Z,24.58
